sensor_id;sensor_type;location;lat;lon;timestamp;P1;durP1;ratioP1;P2;durP2;ratioP2
21611;SDS011;47005;52.292;13.452;2023-07-20T00:00:49;5.72;;;3.17;;
21611;SDS011;47005;52.292;13.452;2023-07-20T00:03:19;7.20;;;3.55;;
21611;SDS011;47005;52.292;13.452;2023-07-20T00:05:50;3.97;;;2.88;;
21611;SDS011;47005;52.292;13.452;2023-07-20T00:08:16;7.15;;;3.38;;
21611;SDS011;47005;52.292;13.452;2023-07-20T00:10:43;4.72;;;3.40;;
21611;SDS011;47005;52.292;13.452;2023-07-20T00:13:09;5.32;;;3.30;;
21611;SDS011;47005;52.292;13.452;2023-07-20T00:15:36;5.65;;;3.00;;
21611;SDS011;47005;52.292;13.452;2023-07-20T00:18:03;7.18;;;3.25;;
21611;SDS011;47005;52.292;13.452;2023-07-20T00:20:29;4.72;;;3.28;;
21611;SDS011;47005;52.292;13.452;2023-07-20T00:22:55;6.97;;;2.75;;
21611;SDS011;47005;52.292;13.452;2023-07-20T00:25:23;4.30;;;3.17;;
21611;SDS011;47005;52.292;13.452;2023-07-20T00:27:48;4.63;;;3.33;;
21611;SDS011;47005;52.292;13.452;2023-07-20T00:30:14;7.35;;;3.78;;
21611;SDS011;47005;52.292;13.452;2023-07-20T00:32:41;7.40;;;3.67;;
21611;SDS011;47005;52.292;13.452;2023-07-20T00:35:08;5.55;;;3.85;;
21611;SDS011;47005;52.292;13.452;2023-07-20T00:37:33;4.38;;;3.40;;
21611;SDS011;47005;52.292;13.452;2023-07-20T00:39:59;6.18;;;3.35;;
21611;SDS011;47005;52.292;13.452;2023-07-20T00:42:25;4.65;;;3.47;;
21611;SDS011;47005;52.292;13.452;2023-07-20T00:44:50;5.90;;;4.13;;
21611;SDS011;47005;52.292;13.452;2023-07-20T00:47:16;5.22;;;3.38;;
21611;SDS011;47005;52.292;13.452;2023-07-20T00:49:41;5.05;;;3.72;;
21611;SDS011;47005;52.292;13.452;2023-07-20T00:52:09;5.47;;;3.70;;
21611;SDS011;47005;52.292;13.452;2023-07-20T00:54:37;5.43;;;4.40;;
21611;SDS011;47005;52.292;13.452;2023-07-20T00:57:03;7.65;;;3.85;;
21611;SDS011;47005;52.292;13.452;2023-07-20T00:59:29;4.78;;;3.42;;
21611;SDS011;47005;52.292;13.452;2023-07-20T01:01:55;5.38;;;3.72;;
21611;SDS011;47005;52.292;13.452;2023-07-20T01:04:21;7.40;;;4.00;;
21611;SDS011;47005;52.292;13.452;2023-07-20T01:09:31;7.65;;;4.32;;
21611;SDS011;47005;52.292;13.452;2023-07-20T01:12:22;8.20;;;4.15;;
21611;SDS011;47005;52.292;13.452;2023-07-20T01:15:28;7.93;;;4.28;;
21611;SDS011;47005;52.292;13.452;2023-07-20T01:17:53;6.47;;;4.32;;
21611;SDS011;47005;52.292;13.452;2023-07-20T01:20:20;7.30;;;4.72;;
21611;SDS011;47005;52.292;13.452;2023-07-20T01:28:23;5.88;;;4.53;;
21611;SDS011;47005;52.292;13.452;2023-07-20T01:33:57;8.32;;;4.55;;
21611;SDS011;47005;52.292;13.452;2023-07-20T01:36:26;7.13;;;3.97;;
21611;SDS011;47005;52.292;13.452;2023-07-20T01:38:54;6.00;;;4.22;;
21611;SDS011;47005;52.292;13.452;2023-07-20T01:41:21;8.45;;;4.47;;
21611;SDS011;47005;52.292;13.452;2023-07-20T01:43:47;8.90;;;5.00;;
21611;SDS011;47005;52.292;13.452;2023-07-20T01:46:13;5.95;;;4.75;;
21611;SDS011;47005;52.292;13.452;2023-07-20T01:48:38;6.53;;;5.30;;
21611;SDS011;47005;52.292;13.452;2023-07-20T01:51:04;7.78;;;4.43;;
21611;SDS011;47005;52.292;13.452;2023-07-20T01:53:30;6.13;;;4.47;;
21611;SDS011;47005;52.292;13.452;2023-07-20T01:55:56;6.47;;;4.32;;
21611;SDS011;47005;52.292;13.452;2023-07-20T01:58:22;8.23;;;4.82;;
21611;SDS011;47005;52.292;13.452;2023-07-20T02:00:48;9.50;;;5.68;;
21611;SDS011;47005;52.292;13.452;2023-07-20T02:03:14;6.47;;;5.20;;
21611;SDS011;47005;52.292;13.452;2023-07-20T02:05:41;6.78;;;5.20;;
21611;SDS011;47005;52.292;13.452;2023-07-20T02:08:07;5.40;;;4.63;;
21611;SDS011;47005;52.292;13.452;2023-07-20T02:10:36;6.63;;;4.90;;
21611;SDS011;47005;52.292;13.452;2023-07-20T02:13:02;6.22;;;5.00;;
21611;SDS011;47005;52.292;13.452;2023-07-20T02:15:28;5.28;;;4.40;;
21611;SDS011;47005;52.292;13.452;2023-07-20T02:17:54;7.43;;;4.90;;
21611;SDS011;47005;52.292;13.452;2023-07-20T02:20:20;7.55;;;4.55;;
21611;SDS011;47005;52.292;13.452;2023-07-20T02:22:46;6.30;;;4.97;;
21611;SDS011;47005;52.292;13.452;2023-07-20T02:25:12;7.95;;;4.70;;
21611;SDS011;47005;52.292;13.452;2023-07-20T02:27:38;6.30;;;4.88;;
21611;SDS011;47005;52.292;13.452;2023-07-20T02:30:04;6.93;;;5.18;;
21611;SDS011;47005;52.292;13.452;2023-07-20T02:32:30;6.25;;;4.45;;
21611;SDS011;47005;52.292;13.452;2023-07-20T02:34:59;6.35;;;4.88;;
21611;SDS011;47005;52.292;13.452;2023-07-20T02:37:25;5.97;;;4.97;;
21611;SDS011;47005;52.292;13.452;2023-07-20T02:39:51;7.07;;;4.60;;
21611;SDS011;47005;52.292;13.452;2023-07-20T02:42:16;7.82;;;4.55;;
21611;SDS011;47005;52.292;13.452;2023-07-20T02:44:42;4.93;;;4.38;;
21611;SDS011;47005;52.292;13.452;2023-07-20T02:47:08;6.57;;;5.22;;
21611;SDS011;47005;52.292;13.452;2023-07-20T02:49:34;6.35;;;4.82;;
21611;SDS011;47005;52.292;13.452;2023-07-20T02:51:59;7.18;;;4.50;;
21611;SDS011;47005;52.292;13.452;2023-07-20T02:54:26;7.40;;;5.70;;
21611;SDS011;47005;52.292;13.452;2023-07-20T02:56:51;5.30;;;4.20;;
21611;SDS011;47005;52.292;13.452;2023-07-20T02:59:17;5.90;;;4.97;;
21611;SDS011;47005;52.292;13.452;2023-07-20T03:01:43;9.15;;;4.82;;
21611;SDS011;47005;52.292;13.452;2023-07-20T03:04:09;11.35;;;4.68;;
21611;SDS011;47005;52.292;13.452;2023-07-20T03:06:35;6.20;;;4.55;;
21611;SDS011;47005;52.292;13.452;2023-07-20T03:09:02;6.32;;;4.95;;
21611;SDS011;47005;52.292;13.452;2023-07-20T03:11:32;8.18;;;4.57;;
21611;SDS011;47005;52.292;13.452;2023-07-20T03:13:59;8.90;;;4.93;;
21611;SDS011;47005;52.292;13.452;2023-07-20T03:16:24;6.70;;;4.47;;
21611;SDS011;47005;52.292;13.452;2023-07-20T03:18:50;6.35;;;5.38;;
21611;SDS011;47005;52.292;13.452;2023-07-20T03:21:16;9.05;;;5.25;;
21611;SDS011;47005;52.292;13.452;2023-07-20T03:23:42;6.22;;;4.68;;
21611;SDS011;47005;52.292;13.452;2023-07-20T03:26:07;7.32;;;5.20;;
21611;SDS011;47005;52.292;13.452;2023-07-20T03:28:34;10.63;;;5.97;;
21611;SDS011;47005;52.292;13.452;2023-07-20T03:31:04;8.32;;;5.45;;
21611;SDS011;47005;52.292;13.452;2023-07-20T03:33:30;6.80;;;4.95;;
21611;SDS011;47005;52.292;13.452;2023-07-20T03:35:56;8.23;;;4.80;;
21611;SDS011;47005;52.292;13.452;2023-07-20T03:38:23;5.55;;;4.93;;
21611;SDS011;47005;52.292;13.452;2023-07-20T03:40:50;5.43;;;4.55;;
21611;SDS011;47005;52.292;13.452;2023-07-20T03:43:19;7.80;;;5.55;;
21611;SDS011;47005;52.292;13.452;2023-07-20T03:45:45;7.28;;;5.30;;
21611;SDS011;47005;52.292;13.452;2023-07-20T03:48:13;8.38;;;6.13;;
21611;SDS011;47005;52.292;13.452;2023-07-20T03:50:40;8.85;;;5.63;;
21611;SDS011;47005;52.292;13.452;2023-07-20T03:53:06;6.40;;;5.30;;
21611;SDS011;47005;52.292;13.452;2023-07-20T03:55:32;6.88;;;6.18;;
21611;SDS011;47005;52.292;13.452;2023-07-20T03:57:57;8.77;;;5.85;;
21611;SDS011;47005;52.292;13.452;2023-07-20T04:00:24;9.10;;;6.18;;
21611;SDS011;47005;52.292;13.452;2023-07-20T04:02:50;9.07;;;5.88;;
21611;SDS011;47005;52.292;13.452;2023-07-20T04:05:15;8.40;;;5.72;;
21611;SDS011;47005;52.292;13.452;2023-07-20T04:07:41;14.27;;;7.80;;
21611;SDS011;47005;52.292;13.452;2023-07-20T04:10:07;9.05;;;6.65;;
21611;SDS011;47005;52.292;13.452;2023-07-20T04:12:33;8.73;;;6.82;;
21611;SDS011;47005;52.292;13.452;2023-07-20T04:14:59;6.85;;;6.15;;
21611;SDS011;47005;52.292;13.452;2023-07-20T04:17:25;12.90;;;6.97;;
21611;SDS011;47005;52.292;13.452;2023-07-20T04:19:51;11.57;;;7.45;;
21611;SDS011;47005;52.292;13.452;2023-07-20T04:22:16;13.73;;;7.05;;
21611;SDS011;47005;52.292;13.452;2023-07-20T04:24:42;10.02;;;6.50;;
21611;SDS011;47005;52.292;13.452;2023-07-20T04:27:08;7.03;;;6.32;;
21611;SDS011;47005;52.292;13.452;2023-07-20T04:29:33;10.00;;;6.85;;
21611;SDS011;47005;52.292;13.452;2023-07-20T04:31:59;10.25;;;7.45;;
21611;SDS011;47005;52.292;13.452;2023-07-20T04:34:25;10.45;;;7.43;;
21611;SDS011;47005;52.292;13.452;2023-07-20T04:36:51;14.70;;;7.35;;
21611;SDS011;47005;52.292;13.452;2023-07-20T04:39:16;9.50;;;8.35;;
21611;SDS011;47005;52.292;13.452;2023-07-20T04:41:42;12.05;;;7.82;;
21611;SDS011;47005;52.292;13.452;2023-07-20T04:44:08;13.10;;;8.00;;
21611;SDS011;47005;52.292;13.452;2023-07-20T04:46:34;8.57;;;7.25;;
21611;SDS011;47005;52.292;13.452;2023-07-20T04:48:59;10.73;;;8.15;;
21611;SDS011;47005;52.292;13.452;2023-07-20T04:51:26;10.60;;;8.20;;
21611;SDS011;47005;52.292;13.452;2023-07-20T04:53:52;10.35;;;8.57;;
21611;SDS011;47005;52.292;13.452;2023-07-20T04:56:18;9.95;;;8.55;;
21611;SDS011;47005;52.292;13.452;2023-07-20T04:58:43;9.10;;;8.02;;
21611;SDS011;47005;52.292;13.452;2023-07-20T05:01:10;11.95;;;7.53;;
21611;SDS011;47005;52.292;13.452;2023-07-20T05:03:36;11.35;;;7.82;;
21611;SDS011;47005;52.292;13.452;2023-07-20T05:06:02;11.07;;;9.02;;
21611;SDS011;47005;52.292;13.452;2023-07-20T05:08:27;14.52;;;9.07;;
21611;SDS011;47005;52.292;13.452;2023-07-20T05:10:53;10.52;;;9.43;;
21611;SDS011;47005;52.292;13.452;2023-07-20T05:13:19;11.30;;;8.77;;
21611;SDS011;47005;52.292;13.452;2023-07-20T05:15:44;12.60;;;8.50;;
21611;SDS011;47005;52.292;13.452;2023-07-20T05:18:10;10.80;;;8.23;;
21611;SDS011;47005;52.292;13.452;2023-07-20T05:20:36;11.85;;;8.85;;
21611;SDS011;47005;52.292;13.452;2023-07-20T05:23:02;11.98;;;9.18;;
21611;SDS011;47005;52.292;13.452;2023-07-20T05:25:28;11.18;;;8.77;;
21611;SDS011;47005;52.292;13.452;2023-07-20T05:27:53;9.75;;;8.75;;
21611;SDS011;47005;52.292;13.452;2023-07-20T05:30:20;10.88;;;9.23;;
21611;SDS011;47005;52.292;13.452;2023-07-20T05:32:48;13.40;;;8.75;;
21611;SDS011;47005;52.292;13.452;2023-07-20T05:35:17;9.95;;;8.95;;
21611;SDS011;47005;52.292;13.452;2023-07-20T05:37:44;12.13;;;8.70;;
21611;SDS011;47005;52.292;13.452;2023-07-20T05:40:10;13.63;;;8.88;;
21611;SDS011;47005;52.292;13.452;2023-07-20T05:42:37;13.15;;;8.93;;
21611;SDS011;47005;52.292;13.452;2023-07-20T05:45:04;14.55;;;9.70;;
21611;SDS011;47005;52.292;13.452;2023-07-20T05:47:30;11.23;;;9.32;;
21611;SDS011;47005;52.292;13.452;2023-07-20T05:49:57;12.80;;;9.38;;
21611;SDS011;47005;52.292;13.452;2023-07-20T05:52:22;14.18;;;9.93;;
21611;SDS011;47005;52.292;13.452;2023-07-20T05:54:48;10.43;;;8.05;;
21611;SDS011;47005;52.292;13.452;2023-07-20T05:57:14;10.35;;;8.70;;
21611;SDS011;47005;52.292;13.452;2023-07-20T05:59:40;9.75;;;8.25;;
21611;SDS011;47005;52.292;13.452;2023-07-20T06:02:09;8.75;;;7.55;;
21611;SDS011;47005;52.292;13.452;2023-07-20T06:04:35;8.85;;;7.80;;
21611;SDS011;47005;52.292;13.452;2023-07-20T06:07:01;11.95;;;7.72;;
21611;SDS011;47005;52.292;13.452;2023-07-20T06:09:27;9.82;;;8.18;;
21611;SDS011;47005;52.292;13.452;2023-07-20T06:11:54;8.43;;;6.82;;
21611;SDS011;47005;52.292;13.452;2023-07-20T06:14:21;10.05;;;7.55;;
21611;SDS011;47005;52.292;13.452;2023-07-20T06:16:47;12.85;;;7.22;;
21611;SDS011;47005;52.292;13.452;2023-07-20T06:19:13;7.22;;;6.00;;
21611;SDS011;47005;52.292;13.452;2023-07-20T06:21:39;10.00;;;7.03;;
21611;SDS011;47005;52.292;13.452;2023-07-20T06:24:05;8.20;;;5.82;;
21611;SDS011;47005;52.292;13.452;2023-07-20T06:26:31;14.30;;;6.88;;
21611;SDS011;47005;52.292;13.452;2023-07-20T06:29:03;10.05;;;7.15;;
21611;SDS011;47005;52.292;13.452;2023-07-20T06:31:28;8.25;;;7.05;;
21611;SDS011;47005;52.292;13.452;2023-07-20T06:33:54;6.97;;;5.47;;
21611;SDS011;47005;52.292;13.452;2023-07-20T06:36:19;7.32;;;5.55;;
21611;SDS011;47005;52.292;13.452;2023-07-20T06:38:45;8.90;;;5.53;;
21611;SDS011;47005;52.292;13.452;2023-07-20T06:41:11;8.05;;;5.65;;
21611;SDS011;47005;52.292;13.452;2023-07-20T06:43:37;5.78;;;4.97;;
21611;SDS011;47005;52.292;13.452;2023-07-20T06:46:03;6.20;;;5.30;;
21611;SDS011;47005;52.292;13.452;2023-07-20T06:48:28;7.90;;;5.97;;
21611;SDS011;47005;52.292;13.452;2023-07-20T06:50:54;7.88;;;5.25;;
21611;SDS011;47005;52.292;13.452;2023-07-20T06:53:20;7.45;;;5.50;;
21611;SDS011;47005;52.292;13.452;2023-07-20T06:55:46;6.75;;;5.53;;
21611;SDS011;47005;52.292;13.452;2023-07-20T06:58:11;6.80;;;5.25;;
21611;SDS011;47005;52.292;13.452;2023-07-20T07:00:37;6.35;;;5.50;;
21611;SDS011;47005;52.292;13.452;2023-07-20T07:03:03;9.75;;;6.18;;
21611;SDS011;47005;52.292;13.452;2023-07-20T07:05:28;9.55;;;5.78;;
21611;SDS011;47005;52.292;13.452;2023-07-20T07:07:54;9.85;;;6.22;;
21611;SDS011;47005;52.292;13.452;2023-07-20T07:10:20;7.82;;;4.70;;
21611;SDS011;47005;52.292;13.452;2023-07-20T07:12:45;7.18;;;3.88;;
21611;SDS011;47005;52.292;13.452;2023-07-20T07:15:11;6.68;;;3.35;;
21611;SDS011;47005;52.292;13.452;2023-07-20T07:17:37;7.65;;;3.40;;
21611;SDS011;47005;52.292;13.452;2023-07-20T07:20:03;4.43;;;2.58;;
21611;SDS011;47005;52.292;13.452;2023-07-20T07:22:30;4.60;;;2.67;;
21611;SDS011;47005;52.292;13.452;2023-07-20T07:24:55;4.22;;;2.90;;
21611;SDS011;47005;52.292;13.452;2023-07-20T07:27:21;3.88;;;2.55;;
21611;SDS011;47005;52.292;13.452;2023-07-20T07:29:47;4.47;;;2.92;;
21611;SDS011;47005;52.292;13.452;2023-07-20T07:32:13;5.43;;;2.90;;
21611;SDS011;47005;52.292;13.452;2023-07-20T07:34:40;3.97;;;3.00;;
21611;SDS011;47005;52.292;13.452;2023-07-20T07:37:05;5.85;;;3.08;;
21611;SDS011;47005;52.292;13.452;2023-07-20T07:39:31;4.68;;;2.50;;
21611;SDS011;47005;52.292;13.452;2023-07-20T07:41:57;3.38;;;2.15;;
21611;SDS011;47005;52.292;13.452;2023-07-20T07:44:23;3.92;;;2.00;;
21611;SDS011;47005;52.292;13.452;2023-07-20T07:46:49;2.45;;;1.98;;
21611;SDS011;47005;52.292;13.452;2023-07-20T07:49:15;3.78;;;1.92;;
21611;SDS011;47005;52.292;13.452;2023-07-20T07:51:41;4.70;;;1.80;;
21611;SDS011;47005;52.292;13.452;2023-07-20T07:54:06;2.58;;;1.65;;
21611;SDS011;47005;52.292;13.452;2023-07-20T07:56:32;3.95;;;1.92;;
21611;SDS011;47005;52.292;13.452;2023-07-20T07:58:58;2.97;;;1.75;;
21611;SDS011;47005;52.292;13.452;2023-07-20T08:01:24;3.42;;;1.85;;
21611;SDS011;47005;52.292;13.452;2023-07-20T08:03:50;3.33;;;1.38;;
21611;SDS011;47005;52.292;13.452;2023-07-20T08:06:16;2.67;;;1.33;;
21611;SDS011;47005;52.292;13.452;2023-07-20T08:08:41;4.03;;;1.75;;
21611;SDS011;47005;52.292;13.452;2023-07-20T08:11:07;2.75;;;1.58;;
21611;SDS011;47005;52.292;13.452;2023-07-20T08:13:34;2.10;;;1.25;;
21611;SDS011;47005;52.292;13.452;2023-07-20T08:16:00;2.60;;;1.52;;
21611;SDS011;47005;52.292;13.452;2023-07-20T08:18:29;2.00;;;1.40;;
21611;SDS011;47005;52.292;13.452;2023-07-20T08:20:54;3.30;;;1.65;;
21611;SDS011;47005;52.292;13.452;2023-07-20T08:23:20;1.70;;;1.30;;
21611;SDS011;47005;52.292;13.452;2023-07-20T08:25:46;2.65;;;1.40;;
21611;SDS011;47005;52.292;13.452;2023-07-20T08:28:15;2.55;;;1.30;;
21611;SDS011;47005;52.292;13.452;2023-07-20T08:33:08;3.25;;;1.50;;
21611;SDS011;47005;52.292;13.452;2023-07-20T08:35:45;3.75;;;1.15;;
21611;SDS011;47005;52.292;13.452;2023-07-20T08:38:11;1.55;;;1.10;;
21611;SDS011;47005;52.292;13.452;2023-07-20T08:40:44;1.48;;;1.10;;
21611;SDS011;47005;52.292;13.452;2023-07-20T08:43:11;1.92;;;1.10;;
21611;SDS011;47005;52.292;13.452;2023-07-20T08:45:39;1.70;;;1.17;;
21611;SDS011;47005;52.292;13.452;2023-07-20T08:48:06;2.53;;;1.15;;
21611;SDS011;47005;52.292;13.452;2023-07-20T08:50:33;1.15;;;0.80;;
21611;SDS011;47005;52.292;13.452;2023-07-20T08:52:59;1.30;;;1.00;;
21611;SDS011;47005;52.292;13.452;2023-07-20T08:55:26;1.35;;;1.08;;
21611;SDS011;47005;52.292;13.452;2023-07-20T08:57:54;1.15;;;0.80;;
21611;SDS011;47005;52.292;13.452;2023-07-20T09:00:20;1.48;;;1.10;;
21611;SDS011;47005;52.292;13.452;2023-07-20T09:02:51;1.10;;;0.75;;
21611;SDS011;47005;52.292;13.452;2023-07-20T09:05:18;4.40;;;1.10;;
21611;SDS011;47005;52.292;13.452;2023-07-20T09:07:44;1.90;;;1.25;;
21611;SDS011;47005;52.292;13.452;2023-07-20T09:10:10;2.28;;;0.80;;
21611;SDS011;47005;52.292;13.452;2023-07-20T09:12:37;1.50;;;1.08;;
21611;SDS011;47005;52.292;13.452;2023-07-20T09:15:05;1.73;;;1.10;;
21611;SDS011;47005;52.292;13.452;2023-07-20T09:17:31;0.73;;;0.70;;
21611;SDS011;47005;52.292;13.452;2023-07-20T09:19:58;1.00;;;0.77;;
21611;SDS011;47005;52.292;13.452;2023-07-20T09:22:30;0.75;;;0.63;;
21611;SDS011;47005;52.292;13.452;2023-07-20T09:24:57;1.13;;;0.85;;
21611;SDS011;47005;52.292;13.452;2023-07-20T09:27:39;1.40;;;1.05;;
21611;SDS011;47005;52.292;13.452;2023-07-20T09:30:06;2.60;;;1.08;;
21611;SDS011;47005;52.292;13.452;2023-07-20T09:35:12;1.05;;;0.80;;
21611;SDS011;47005;52.292;13.452;2023-07-20T09:38:00;2.65;;;1.13;;
21611;SDS011;47005;52.292;13.452;2023-07-20T09:40:27;5.15;;;1.00;;
21611;SDS011;47005;52.292;13.452;2023-07-20T09:42:53;1.70;;;1.15;;
21611;SDS011;47005;52.292;13.452;2023-07-20T09:45:35;1.50;;;0.90;;
21611;SDS011;47005;52.292;13.452;2023-07-20T09:48:08;1.48;;;1.00;;
21611;SDS011;47005;52.292;13.452;2023-07-20T09:50:48;1.35;;;1.00;;
21611;SDS011;47005;52.292;13.452;2023-07-20T09:53:18;1.83;;;0.90;;
21611;SDS011;47005;52.292;13.452;2023-07-20T09:55:45;1.67;;;1.00;;
21611;SDS011;47005;52.292;13.452;2023-07-20T09:58:14;0.68;;;0.68;;
21611;SDS011;47005;52.292;13.452;2023-07-20T10:00:41;5.47;;;0.85;;
21611;SDS011;47005;52.292;13.452;2023-07-20T10:03:13;1.45;;;0.80;;
21611;SDS011;47005;52.292;13.452;2023-07-20T10:05:43;1.00;;;0.70;;
21611;SDS011;47005;52.292;13.452;2023-07-20T10:08:12;2.22;;;0.80;;
21611;SDS011;47005;52.292;13.452;2023-07-20T10:10:41;1.17;;;0.77;;
21611;SDS011;47005;52.292;13.452;2023-07-20T10:13:10;1.60;;;0.88;;
21611;SDS011;47005;52.292;13.452;2023-07-20T10:15:46;1.77;;;1.13;;
21611;SDS011;47005;52.292;13.452;2023-07-20T10:21:18;1.52;;;0.75;;
21611;SDS011;47005;52.292;13.452;2023-07-20T10:23:47;1.27;;;0.63;;
21611;SDS011;47005;52.292;13.452;2023-07-20T10:26:14;5.32;;;0.90;;
21611;SDS011;47005;52.292;13.452;2023-07-20T10:28:40;0.77;;;0.60;;
21611;SDS011;47005;52.292;13.452;2023-07-20T10:31:09;0.95;;;0.68;;
21611;SDS011;47005;52.292;13.452;2023-07-20T10:33:37;0.70;;;0.60;;
21611;SDS011;47005;52.292;13.452;2023-07-20T10:36:04;1.85;;;1.02;;
21611;SDS011;47005;52.292;13.452;2023-07-20T10:43:47;1.00;;;0.63;;
21611;SDS011;47005;52.292;13.452;2023-07-20T10:46:14;0.73;;;0.73;;
21611;SDS011;47005;52.292;13.452;2023-07-20T10:48:58;0.50;;;0.50;;
21611;SDS011;47005;52.292;13.452;2023-07-20T10:51:29;0.93;;;0.60;;
21611;SDS011;47005;52.292;13.452;2023-07-20T10:53:57;1.20;;;0.77;;
21611;SDS011;47005;52.292;13.452;2023-07-20T10:56:25;1.10;;;0.73;;
21611;SDS011;47005;52.292;13.452;2023-07-20T10:58:58;1.45;;;0.60;;
21611;SDS011;47005;52.292;13.452;2023-07-20T11:01:28;1.13;;;0.73;;
21611;SDS011;47005;52.292;13.452;2023-07-20T11:03:57;0.60;;;0.50;;
21611;SDS011;47005;52.292;13.452;2023-07-20T11:09:04;1.65;;;0.70;;
21611;SDS011;47005;52.292;13.452;2023-07-20T11:11:30;1.38;;;0.88;;
21611;SDS011;47005;52.292;13.452;2023-07-20T11:16:33;1.42;;;0.65;;
21611;SDS011;47005;52.292;13.452;2023-07-20T11:21:51;4.10;;;0.80;;
21611;SDS011;47005;52.292;13.452;2023-07-20T11:24:29;0.65;;;0.60;;
21611;SDS011;47005;52.292;13.452;2023-07-20T11:26:55;0.77;;;0.50;;
21611;SDS011;47005;52.292;13.452;2023-07-20T11:29:21;1.45;;;0.80;;
21611;SDS011;47005;52.292;13.452;2023-07-20T11:31:48;0.73;;;0.63;;
21611;SDS011;47005;52.292;13.452;2023-07-20T11:34:15;1.17;;;0.88;;
21611;SDS011;47005;52.292;13.452;2023-07-20T11:36:46;1.92;;;0.80;;
21611;SDS011;47005;52.292;13.452;2023-07-20T11:39:14;0.65;;;0.50;;
21611;SDS011;47005;52.292;13.452;2023-07-20T11:41:50;0.82;;;0.70;;
21611;SDS011;47005;52.292;13.452;2023-07-20T11:44:17;1.88;;;0.93;;
21611;SDS011;47005;52.292;13.452;2023-07-20T11:46:44;3.05;;;0.52;;
21611;SDS011;47005;52.292;13.452;2023-07-20T11:49:10;1.27;;;0.80;;
21611;SDS011;47005;52.292;13.452;2023-07-20T11:51:37;1.00;;;0.77;;
21611;SDS011;47005;52.292;13.452;2023-07-20T11:54:04;1.00;;;0.60;;
21611;SDS011;47005;52.292;13.452;2023-07-20T11:56:32;3.85;;;1.00;;
21611;SDS011;47005;52.292;13.452;2023-07-20T11:58:58;0.82;;;0.70;;
21611;SDS011;47005;52.292;13.452;2023-07-20T12:01:26;1.50;;;0.90;;
21611;SDS011;47005;52.292;13.452;2023-07-20T12:03:57;1.48;;;0.90;;
21611;SDS011;47005;52.292;13.452;2023-07-20T12:06:24;1.13;;;0.68;;
21611;SDS011;47005;52.292;13.452;2023-07-20T12:08:50;0.93;;;0.75;;
21611;SDS011;47005;52.292;13.452;2023-07-20T12:13:58;0.77;;;0.70;;
21611;SDS011;47005;52.292;13.452;2023-07-20T12:16:26;0.95;;;0.60;;
21611;SDS011;47005;52.292;13.452;2023-07-20T12:19:06;1.58;;;0.82;;
21611;SDS011;47005;52.292;13.452;2023-07-20T12:21:36;1.05;;;0.80;;
21611;SDS011;47005;52.292;13.452;2023-07-20T12:24:04;1.80;;;0.88;;
21611;SDS011;47005;52.292;13.452;2023-07-20T12:26:31;2.83;;;0.90;;
21611;SDS011;47005;52.292;13.452;2023-07-20T12:28:57;0.85;;;0.70;;
21611;SDS011;47005;52.292;13.452;2023-07-20T12:31:23;0.75;;;0.70;;
21611;SDS011;47005;52.292;13.452;2023-07-20T12:33:50;1.15;;;0.85;;
21611;SDS011;47005;52.292;13.452;2023-07-20T12:36:16;1.67;;;0.98;;
21611;SDS011;47005;52.292;13.452;2023-07-20T12:38:42;1.65;;;0.77;;
21611;SDS011;47005;52.292;13.452;2023-07-20T12:41:09;0.90;;;0.60;;
21611;SDS011;47005;52.292;13.452;2023-07-20T12:43:38;5.32;;;0.90;;
21611;SDS011;47005;52.292;13.452;2023-07-20T12:46:05;0.70;;;0.60;;
21611;SDS011;47005;52.292;13.452;2023-07-20T12:48:31;0.93;;;0.73;;
21611;SDS011;47005;52.292;13.452;2023-07-20T12:50:56;0.50;;;0.50;;
21611;SDS011;47005;52.292;13.452;2023-07-20T12:53:22;1.65;;;0.80;;
21611;SDS011;47005;52.292;13.452;2023-07-20T12:55:48;1.08;;;0.77;;
21611;SDS011;47005;52.292;13.452;2023-07-20T12:58:13;1.98;;;0.77;;
21611;SDS011;47005;52.292;13.452;2023-07-20T13:00:39;3.08;;;0.88;;
21611;SDS011;47005;52.292;13.452;2023-07-20T13:03:05;0.57;;;0.57;;
21611;SDS011;47005;52.292;13.452;2023-07-20T13:05:31;0.73;;;0.63;;
21611;SDS011;47005;52.292;13.452;2023-07-20T13:07:57;0.68;;;0.50;;
21611;SDS011;47005;52.292;13.452;2023-07-20T13:10:23;0.50;;;0.50;;
21611;SDS011;47005;52.292;13.452;2023-07-20T13:12:49;0.90;;;0.50;;
21611;SDS011;47005;52.292;13.452;2023-07-20T13:15:16;1.15;;;0.70;;
21611;SDS011;47005;52.292;13.452;2023-07-20T13:17:42;0.70;;;0.50;;
21611;SDS011;47005;52.292;13.452;2023-07-20T13:20:08;0.50;;;0.40;;
21611;SDS011;47005;52.292;13.452;2023-07-20T13:22:39;1.45;;;0.60;;
21611;SDS011;47005;52.292;13.452;2023-07-20T13:25:06;0.90;;;0.50;;
21611;SDS011;47005;52.292;13.452;2023-07-20T13:27:32;0.40;;;0.40;;
21611;SDS011;47005;52.292;13.452;2023-07-20T13:29:58;0.75;;;0.45;;
21611;SDS011;47005;52.292;13.452;2023-07-20T13:32:26;1.08;;;0.60;;
21611;SDS011;47005;52.292;13.452;2023-07-20T13:34:52;0.65;;;0.45;;
21611;SDS011;47005;52.292;13.452;2023-07-20T13:37:18;1.65;;;0.50;;
21611;SDS011;47005;52.292;13.452;2023-07-20T13:39:44;0.82;;;0.50;;
21611;SDS011;47005;52.292;13.452;2023-07-20T13:42:10;1.50;;;0.57;;
21611;SDS011;47005;52.292;13.452;2023-07-20T13:44:37;0.82;;;0.68;;
21611;SDS011;47005;52.292;13.452;2023-07-20T13:47:03;3.10;;;0.70;;
21611;SDS011;47005;52.292;13.452;2023-07-20T13:49:32;1.02;;;0.60;;
21611;SDS011;47005;52.292;13.452;2023-07-20T13:51:57;4.00;;;0.90;;
21611;SDS011;47005;52.292;13.452;2023-07-20T13:54:23;1.13;;;0.68;;
21611;SDS011;47005;52.292;13.452;2023-07-20T13:56:50;1.73;;;0.75;;
21611;SDS011;47005;52.292;13.452;2023-07-20T13:59:16;1.23;;;0.63;;
21611;SDS011;47005;52.292;13.452;2023-07-20T14:01:42;0.77;;;0.55;;
21611;SDS011;47005;52.292;13.452;2023-07-20T14:04:08;0.90;;;0.68;;
21611;SDS011;47005;52.292;13.452;2023-07-20T14:06:34;1.40;;;0.60;;
21611;SDS011;47005;52.292;13.452;2023-07-20T14:09:00;3.63;;;0.63;;
21611;SDS011;47005;52.292;13.452;2023-07-20T14:11:27;0.60;;;0.52;;
21611;SDS011;47005;52.292;13.452;2023-07-20T14:13:53;1.40;;;0.80;;
21611;SDS011;47005;52.292;13.452;2023-07-20T14:16:19;0.88;;;0.60;;
21611;SDS011;47005;52.292;13.452;2023-07-20T14:18:46;0.68;;;0.50;;
21611;SDS011;47005;52.292;13.452;2023-07-20T14:21:13;0.90;;;0.50;;
21611;SDS011;47005;52.292;13.452;2023-07-20T14:23:39;0.50;;;0.50;;
21611;SDS011;47005;52.292;13.452;2023-07-20T14:26:05;1.60;;;0.80;;
21611;SDS011;47005;52.292;13.452;2023-07-20T14:28:32;0.60;;;0.52;;
21611;SDS011;47005;52.292;13.452;2023-07-20T14:30:58;1.35;;;0.70;;
21611;SDS011;47005;52.292;13.452;2023-07-20T14:33:24;2.90;;;0.70;;
21611;SDS011;47005;52.292;13.452;2023-07-20T14:35:49;1.02;;;0.50;;
21611;SDS011;47005;52.292;13.452;2023-07-20T14:38:15;2.63;;;0.60;;
21611;SDS011;47005;52.292;13.452;2023-07-20T14:40:40;0.60;;;0.57;;
21611;SDS011;47005;52.292;13.452;2023-07-20T14:43:06;0.40;;;0.40;;
21611;SDS011;47005;52.292;13.452;2023-07-20T14:45:32;0.60;;;0.55;;
21611;SDS011;47005;52.292;13.452;2023-07-20T14:47:58;1.30;;;0.60;;
21611;SDS011;47005;52.292;13.452;2023-07-20T14:50:24;0.95;;;0.50;;
21611;SDS011;47005;52.292;13.452;2023-07-20T14:52:49;0.70;;;0.52;;
21611;SDS011;47005;52.292;13.452;2023-07-20T14:55:15;1.63;;;0.80;;
21611;SDS011;47005;52.292;13.452;2023-07-20T14:57:42;1.02;;;0.60;;
21611;SDS011;47005;52.292;13.452;2023-07-20T15:00:08;1.08;;;0.60;;
21611;SDS011;47005;52.292;13.452;2023-07-20T15:02:37;1.20;;;0.80;;
21611;SDS011;47005;52.292;13.452;2023-07-20T15:05:03;0.70;;;0.63;;
21611;SDS011;47005;52.292;13.452;2023-07-20T15:07:31;0.90;;;0.65;;